Time;durP1;ratioP1;P1;durP2;ratioP2;P2;SDS_P1;SDS_P2;PMS_P1;PMS_P2;Temp;Humidity;BMP_temperature;BMP_pressure;BME280_temperature;BME280_humidity;BME280_pressure;Samples;Min_cycle;Max_cycle;Signal;HPM_P1;HPM_P2
2022/05/14 00:01:51;;;;;;;4.45;3.00;;;23.80;69.40;;;;;;10941949;32;20041;-70
2022/05/14 00:07:54;;;;;;;5.75;3.75;;;23.90;69.30;;;;;;10930755;32;20050;-70
2022/05/14 00:13:56;;;;;;;6.62;4.05;;;23.80;69.90;;;;;;10944014;32;20073;-70
2022/05/14 00:20:01;;;;;;;9.35;4.28;;;23.80;69.70;;;;;;10943885;32;20046;-70
2022/05/14 00:26:05;;;;;;;6.00;4.07;;;23.70;69.90;;;;;;10943891;32;20019;-70
2022/05/14 00:32:10;;;;;;;7.45;4.10;;;23.70;70.30;;;;;;10944083;32;20387;-70
2022/05/14 00:38:13;;;;;;;8.63;4.60;;;23.60;70.50;;;;;;10943247;32;20066;-70
2022/05/14 00:44:15;;;;;;;7.37;4.18;;;23.60;70.50;;;;;;10942900;32;20031;-70
2022/05/14 00:50:46;;;;;;;6.30;4.32;;;23.50;70.60;;;;;;10943223;32;20022;-70
2022/05/14 00:57:02;;;;;;;8.80;3.83;;;23.50;70.80;;;;;;10942898;32;20027;-70
2022/05/14 01:03:05;;;;;;;5.03;3.70;;;23.50;71.10;;;;;;10940517;32;20027;-70
2022/05/14 01:09:08;;;;;;;6.30;3.85;;;23.40;71.30;;;;;;10929089;32;20069;-70
2022/05/14 01:22:53;;;;;;;6.25;4.30;;;23.40;71.60;;;;;;10825438;32;20321;-71
2022/05/14 01:29:13;;;;;;;6.40;4.28;;;23.30;71.80;;;;;;10825897;32;20363;-73
2022/05/14 01:35:22;;;;;;;7.35;4.40;;;23.30;71.80;;;;;;10825890;32;20404;-73
2022/05/14 01:41:24;;;;;;;4.45;3.25;;;23.20;72.30;;;;;;10809271;33;20028;-74
2022/05/14 01:47:27;;;;;;;9.70;4.75;;;23.20;72.20;;;;;;10826588;33;20035;-74
2022/05/14 01:53:30;;;;;;;7.72;5.45;;;23.10;72.20;;;;;;10826366;33;20032;-74
2022/05/14 01:59:51;;;;;;;4.78;3.53;;;23.00;72.30;;;;;;10930774;32;20069;-74
2022/05/14 02:05:53;;;;;;;6.20;4.65;;;22.90;72.10;;;;;;10948642;32;20077;-73
2022/05/14 02:11:55;;;;;;;6.78;4.43;;;22.80;72.30;;;;;;10948368;32;20049;-73
2022/05/14 02:17:58;;;;;;;9.05;5.80;;;22.80;72.30;;;;;;10948180;32;20027;-74
2022/05/14 02:24:00;;;;;;;8.00;5.50;;;22.90;72.30;;;;;;10944784;32;20069;-74
2022/05/14 02:30:03;;;;;;;7.15;4.82;;;22.90;72.20;;;;;;10947347;32;20049;-73
2022/05/14 02:36:10;;;;;;;7.35;5.55;;;22.80;72.20;;;;;;10933155;32;20038;-74
2022/05/14 02:42:12;;;;;;;8.25;5.78;;;22.80;72.30;;;;;;10933458;32;20045;-73
2022/05/14 02:48:15;;;;;;;9.30;6.50;;;22.80;72.20;;;;;;10946825;32;20023;-73
2022/05/14 02:54:17;;;;;;;11.60;5.72;;;22.80;72.10;;;;;;10944631;32;20311;-73
2022/05/14 03:00:21;;;;;;;7.40;5.28;;;22.60;72.30;;;;;;10945451;32;20030;-73
2022/05/14 03:06:23;;;;;;;8.35;5.25;;;22.50;72.60;;;;;;10928142;32;20062;-73
2022/05/14 03:13:03;;;;;;;7.68;5.93;;;22.30;72.80;;;;;;10944939;32;20038;-73
2022/05/14 03:19:15;;;;;;;8.40;6.32;;;22.30;72.80;;;;;;10793848;32;20103;-73
2022/05/14 03:25:18;;;;;;;10.05;7.12;;;22.20;73.00;;;;;;10792673;32;20028;-73
2022/05/14 03:31:20;;;;;;;8.82;6.97;;;22.30;73.00;;;;;;10792409;33;20028;-73
2022/05/14 03:37:25;;;;;;;10.75;6.50;;;22.20;72.90;;;;;;10792703;33;20393;-73
2022/05/14 03:43:28;;;;;;;11.55;6.53;;;22.20;72.90;;;;;;10788227;33;20051;-72
2022/05/14 03:49:30;;;;;;;11.00;7.00;;;22.20;73.00;;;;;;10792134;33;20054;-72
2022/05/14 03:55:32;;;;;;;9.90;7.53;;;22.30;73.30;;;;;;10876715;32;20312;-73
2022/05/14 04:01:35;;;;;;;10.02;7.32;;;22.30;73.30;;;;;;10906196;32;20074;-73
2022/05/14 04:07:37;;;;;;;7.97;6.22;;;22.20;73.20;;;;;;10906478;32;20042;-73
2022/05/14 04:13:41;;;;;;;8.13;5.90;;;22.10;73.30;;;;;;10892863;32;20041;-74
2022/05/14 04:19:52;;;;;;;7.95;6.07;;;21.90;73.40;;;;;;10905598;32;20089;-73
2022/05/14 04:25:56;;;;;;;7.10;5.35;;;21.90;73.60;;;;;;10906064;32;20023;-73
2022/05/14 04:31:58;;;;;;;8.40;5.78;;;21.80;73.60;;;;;;10904841;32;20023;-73
2022/05/14 04:38:13;;;;;;;7.05;6.20;;;21.80;73.50;;;;;;10905557;32;20334;-73
2022/05/14 04:44:16;;;;;;;8.90;6.15;;;21.80;73.60;;;;;;10901851;32;20019;-73
2022/05/14 04:50:18;;;;;;;8.93;6.18;;;21.90;73.50;;;;;;10905162;32;20379;-73
2022/05/14 04:56:20;;;;;;;7.50;5.28;;;21.90;73.40;;;;;;10891086;32;20101;-74
2022/05/14 05:08:43;;;;;;;8.82;5.25;;;21.80;73.70;;;;;;10904165;32;20054;-74
2022/05/14 05:14:46;;;;;;;7.47;5.70;;;21.80;73.60;;;;;;10903912;32;20028;-73
2022/05/14 05:20:52;;;;;;;8.90;6.72;;;21.80;73.60;;;;;;10904404;32;20023;-74
2022/05/14 05:26:54;;;;;;;9.18;5.72;;;21.90;73.50;;;;;;10903960;32;20097;-73
2022/05/14 05:32:56;;;;;;;8.55;6.55;;;22.00;73.40;;;;;;10908722;32;20312;-73
2022/05/14 05:38:58;;;;;;;6.50;4.78;;;22.00;73.30;;;;;;10911822;32;20027;-73
2022/05/14 05:45:01;;;;;;;5.80;4.28;;;22.10;73.10;;;;;;10911570;32;20352;-73
2022/05/14 05:51:03;;;;;;;6.50;4.45;;;22.30;73.00;;;;;;10911324;32;20340;-73
2022/05/14 05:57:06;;;;;;;7.18;5.25;;;22.40;72.80;;;;;;10911100;32;20023;-75
2022/05/14 06:03:19;;;;;;;5.72;3.72;;;22.60;72.50;;;;;;10910733;32;20046;-74
2022/05/14 06:09:47;;;;;;;8.45;4.37;;;22.70;72.30;;;;;;10910810;32;20031;-74
2022/05/14 06:15:49;;;;;;;6.57;4.77;;;22.90;72.10;;;;;;10910278;32;20031;-73
2022/05/14 06:22:31;;;;;;;6.40;3.62;;;23.00;72.00;;;;;;10910354;32;20015;-74
2022/05/14 06:28:33;;;;;;;6.05;4.22;;;23.20;71.80;;;;;;10910087;32;20042;-74
2022/05/14 06:41:49;;;;;;;5.03;3.55;;;23.50;71.50;;;;;;10907923;32;20351;-74
2022/05/14 06:47:53;;;;;;;4.10;2.90;;;23.60;71.30;;;;;;10909293;32;20035;-74
2022/05/14 06:54:08;;;;;;;7.97;4.18;;;23.70;70.80;;;;;;10908924;32;20045;-74
2022/05/14 07:00:11;;;;;;;7.53;5.00;;;23.80;70.80;;;;;;10895503;32;20020;-75
2022/05/14 07:12:34;;;;;;;4.35;3.12;;;24.10;70.10;;;;;;10904765;32;20058;-71
2022/05/14 07:18:36;;;;;;;4.97;3.15;;;24.30;69.90;;;;;;10907333;32;20015;-75
2022/05/14 07:24:39;;;;;;;4.12;2.70;;;24.30;69.40;;;;;;10903125;32;20308;-75
2022/05/14 07:30:41;;;;;;;5.70;3.58;;;24.50;69.20;;;;;;10907251;32;20032;-73
2022/05/14 07:36:52;;;;;;;5.40;3.47;;;24.60;68.80;;;;;;10893286;32;20023;-76
2022/05/14 07:43:15;;;;;;;6.35;4.45;;;24.70;68.50;;;;;;10902406;32;20055;-76
2022/05/14 07:49:20;;;;;;;4.72;3.58;;;24.80;68.10;;;;;;10906044;32;20050;-74
2022/05/14 07:55:24;;;;;;;5.05;3.55;;;24.80;67.60;;;;;;10900776;32;20089;-74
2022/05/14 08:01:27;;;;;;;10.68;3.55;;;24.90;67.10;;;;;;10905751;32;20344;-75
2022/05/14 08:07:30;;;;;;;6.55;3.47;;;25.10;66.60;;;;;;10905436;32;20011;-75
2022/05/14 08:13:34;;;;;;;8.82;3.70;;;25.20;66.30;;;;;;10902962;32;20383;-71
2022/05/14 08:19:36;;;;;;;5.28;3.53;;;25.30;66.40;;;;;;10904814;32;20023;-73
2022/05/14 08:25:51;;;;;;;5.70;3.90;;;25.30;66.10;;;;;;10892462;32;20030;-76
2022/05/14 08:31:54;;;;;;;7.10;5.30;;;25.40;66.00;;;;;;10922957;32;20018;-74
2022/05/14 08:37:57;;;;;;;6.95;4.47;;;25.50;65.70;;;;;;10927938;32;20023;-74
2022/05/14 08:44:04;;;;;;;8.02;4.68;;;25.60;64.80;;;;;;10937769;32;20019;-71
2022/05/14 08:50:08;;;;;;;7.73;4.90;;;25.80;64.70;;;;;;10927538;32;20065;-75
2022/05/14 08:56:20;;;;;;;6.12;4.05;;;25.90;64.20;;;;;;10928136;32;20390;-74
2022/05/14 09:02:30;;;;;;;6.90;4.47;;;25.90;64.20;;;;;;10941332;32;20053;-71
2022/05/14 09:08:33;;;;;;;7.75;4.47;;;25.90;64.10;;;;;;10936743;32;20027;-73
2022/05/14 09:14:39;;;;;;;6.28;3.97;;;26.00;63.70;;;;;;10567513;27;12326936;-72
2022/05/14 09:20:48;;;;;;;7.68;3.22;;;26.30;63.10;;;;;;10901542;32;20035;-70
2022/05/14 09:26:51;;;;;;;5.32;3.10;;;26.60;62.60;;;;;;10888269;32;20031;-72
2022/05/14 09:32:55;;;;;;;9.30;4.60;;;26.50;62.80;;;;;;10899512;32;20494;-72
2022/05/14 09:39:09;;;;;;;4.93;3.62;;;26.80;62.30;;;;;;10899640;32;20391;-72
2022/05/14 09:45:34;;;;;;;6.62;4.57;;;26.80;62.40;;;;;;11017433;32;20432;-72
2022/05/14 09:51:53;;;;;;;4.75;3.28;;;27.10;61.00;;;;;;11017445;32;20057;-71
2022/05/14 09:58:04;;;;;;;10.32;3.70;;;27.20;60.70;;;;;;11013071;32;20026;-72
2022/05/14 10:04:29;;;;;;;5.25;3.83;;;27.30;60.00;;;;;;11001464;32;20383;-72
2022/05/14 10:10:40;;;;;;;4.78;3.20;;;27.30;58.90;;;;;;10976611;32;20065;-72
2022/05/14 10:16:45;;;;;;;5.15;3.80;;;27.50;59.00;;;;;;10978657;32;20035;-73
2022/05/14 10:29:45;;;;;;;8.93;4.32;;;27.60;58.40;;;;;;10984881;32;20070;-70
2022/05/14 10:36:12;;;;;;;6.72;3.25;;;27.80;58.10;;;;;;10984578;32;20342;-72
2022/05/14 10:42:26;;;;;;;5.72;3.83;;;28.00;57.50;;;;;;10984934;32;20433;-72
2022/05/14 10:48:49;;;;;;;7.20;4.07;;;28.30;56.50;;;;;;10984593;32;20019;-73
2022/05/14 10:54:52;;;;;;;7.72;4.03;;;28.70;55.50;;;;;;10985419;32;20315;-72
2022/05/14 11:00:54;;;;;;;6.00;3.70;;;28.60;55.40;;;;;;10983622;32;20054;-72
2022/05/14 11:07:16;;;;;;;5.15;3.40;;;28.70;55.50;;;;;;10970400;32;20030;-72
2022/05/14 11:13:26;;;;;;;6.80;3.87;;;29.00;54.60;;;;;;10979145;32;20030;-72
2022/05/14 11:19:34;;;;;;;4.75;3.40;;;29.30;54.00;;;;;;10983252;32;20027;-72
2022/05/14 11:25:41;;;;;;;7.32;4.35;;;29.30;53.50;;;;;;10982886;32;20023;-74
2022/05/14 11:31:52;;;;;;;;;;;29.40;53.10;;;;;;11005722;32;20045;-72
2022/05/14 11:37:54;;;;;;;3.42;2.60;;;29.30;53.10;;;;;;11015996;32;19968;-72
2022/05/14 11:43:57;;;;;;;8.38;3.05;;;28.90;53.90;;;;;;11002384;32;20026;-73
2022/05/14 11:50:03;;;;;;;6.22;4.05;;;28.80;54.10;;;;;;11020004;32;20027;-74
2022/05/14 11:56:15;;;;;;;7.28;4.62;;;28.80;53.70;;;;;;11019782;32;20030;-72
2022/05/14 12:02:41;;;;;;;5.03;3.47;;;28.70;53.90;;;;;;11019818;32;20041;-73
2022/05/14 12:09:17;;;;;;;7.65;4.90;;;28.50;54.50;;;;;;11019789;32;20018;-72
2022/05/14 12:15:24;;;;;;;6.17;4.07;;;28.30;54.80;;;;;;11001925;32;20026;-72
2022/05/14 12:21:27;;;;;;;8.73;4.35;;;28.10;55.30;;;;;;11019732;32;20033;-72
2022/05/14 12:27:32;;;;;;;6.43;4.30;;;28.00;55.70;;;;;;11005596;32;20045;-72
2022/05/14 12:33:34;;;;;;;4.93;3.20;;;27.90;55.90;;;;;;11018961;32;20061;-72
2022/05/14 12:39:42;;;;;;;5.32;3.45;;;27.80;56.30;;;;;;11018625;32;20026;-72
2022/05/14 12:46:09;;;;;;;6.05;3.03;;;27.70;56.30;;;;;;11019221;32;20088;-72
2022/05/14 12:52:34;;;;;;;7.00;3.87;;;27.70;56.00;;;;;;11007589;32;20038;-72
2022/05/14 12:58:38;;;;;;;5.03;3.08;;;27.60;56.30;;;;;;10980120;32;20399;-72
2022/05/14 13:05:06;;;;;;;4.30;2.65;;;27.60;56.40;;;;;;10980009;32;20057;-72
2022/05/14 13:11:17;;;;;;;7.47;3.80;;;27.80;56.10;;;;;;10979605;32;20040;-73
2022/05/14 13:17:20;;;;;;;5.60;3.42;;;28.00;55.90;;;;;;10979464;32;20045;-72
2022/05/14 13:23:22;;;;;;;5.30;3.37;;;27.90;55.70;;;;;;10976598;32;20030;-72
2022/05/14 13:29:29;;;;;;;4.57;2.70;;;27.90;55.80;;;;;;10975864;32;20049;-72
2022/05/14 13:41:57;;;;;;;4.50;3.17;;;27.70;55.70;;;;;;10978964;32;20141;-72
2022/05/14 13:48:02;;;;;;;4.95;3.12;;;27.70;55.30;;;;;;10960930;32;20037;-72
2022/05/14 13:54:15;;;;;;;5.70;3.62;;;27.80;55.00;;;;;;10970364;32;20046;-72
2022/05/14 14:00:21;;;;;;;7.50;3.37;;;27.90;54.50;;;;;;10985957;32;20334;-72
2022/05/14 14:06:30;;;;;;;6.65;2.83;;;28.10;53.90;;;;;;10985938;32;20027;-72
2022/05/14 14:12:33;;;;;;;4.97;3.33;;;28.20;53.10;;;;;;10984836;32;20041;-73
2022/05/14 14:18:35;;;;;;;4.82;2.95;;;28.30;52.80;;;;;;10985123;32;20343;-72
2022/05/14 14:24:41;;;;;;;6.53;2.37;;;28.50;52.30;;;;;;10981116;32;20019;-73
2022/05/14 14:30:47;;;;;;;3.67;2.60;;;28.70;51.30;;;;;;10984399;32;20045;-72
2022/05/14 14:37:05;;;;;;;5.50;3.12;;;28.80;50.80;;;;;;10972447;32;20330;-72
2022/05/14 14:43:09;;;;;;;7.45;3.45;;;28.80;50.40;;;;;;10983939;32;20030;-72
2022/05/14 14:49:47;;;;;;;5.00;2.53;;;28.80;50.40;;;;;;10983892;32;20313;-73
2022/05/14 14:56:20;;;;;;;5.87;2.90;;;28.80;50.40;;;;;;10984327;32;20018;-73
2022/05/14 15:02:26;;;;;;;5.97;2.95;;;28.90;50.40;;;;;;10966255;32;20045;-72
2022/05/14 15:08:38;;;;;;;5.10;2.73;;;28.90;49.80;;;;;;10979199;32;20045;-73
2022/05/14 15:14:40;;;;;;;2.80;1.90;;;29.10;50.00;;;;;;10980210;32;20030;-72
2022/05/14 15:20:43;;;;;;;6.40;2.12;;;29.20;49.80;;;;;;10979817;32;20057;-73
2022/05/14 15:26:45;;;;;;;2.87;1.80;;;29.10;49.90;;;;;;10982348;32;20077;-71
2022/05/14 15:33:09;;;;;;;8.00;3.15;;;29.00;50.30;;;;;;10981300;32;20030;-72
2022/05/14 15:39:12;;;;;;;6.37;3.05;;;29.10;50.10;;;;;;10982642;32;20035;-70
2022/05/14 15:45:49;;;;;;;6.43;2.70;;;29.10;50.30;;;;;;10982194;32;20018;-73
2022/05/14 15:51:53;;;;;;;5.13;2.67;;;28.80;50.90;;;;;;11018399;32;20038;-71
2022/05/14 15:58:12;;;;;;;5.62;3.25;;;28.90;50.90;;;;;;11002539;32;20137;-73
2022/05/14 16:04:14;;;;;;;7.35;3.55;;;29.00;50.30;;;;;;10982726;32;20319;-73
2022/05/14 16:16:39;;;;;;;6.20;1.90;;;28.60;51.60;;;;;;10980013;32;20322;-73
2022/05/14 16:22:43;;;;;;;3.97;2.15;;;28.20;52.80;;;;;;10977907;32;20347;-74
2022/05/14 16:28:47;;;;;;;3.47;2.40;;;28.10;53.00;;;;;;10978675;32;20406;-72
2022/05/14 16:34:49;;;;;;;6.68;2.85;;;27.90;53.20;;;;;;10967888;32;20029;-73
2022/05/14 16:40:52;;;;;;;6.12;2.50;;;27.80;53.20;;;;;;10981019;32;20041;-72
2022/05/14 16:46:55;;;;;;;5.87;3.10;;;27.80;53.60;;;;;;10980611;32;20375;-73
2022/05/14 16:52:58;;;;;;;4.37;2.55;;;27.70;53.80;;;;;;10978078;32;20010;-72
2022/05/14 16:59:00;;;;;;;3.78;2.78;;;27.60;53.90;;;;;;10975906;32;20414;-73
2022/05/14 17:05:03;;;;;;;4.05;2.67;;;27.60;54.10;;;;;;10980194;32;20421;-73
2022/05/14 17:11:06;;;;;;;5.07;3.00;;;27.60;54.20;;;;;;10980050;32;20407;-73
2022/05/14 17:17:09;;;;;;;4.10;2.08;;;27.50;54.40;;;;;;10950749;27;20057;-73
2022/05/14 17:23:11;;;;;;;3.42;2.17;;;27.30;54.70;;;;;;10941875;32;20030;-73
2022/05/14 17:29:16;;;;;;;4.12;2.70;;;27.30;55.00;;;;;;10941606;32;20023;-73
2022/05/14 17:35:19;;;;;;;3.92;2.20;;;27.30;55.20;;;;;;10939034;32;20065;-73
2022/05/14 17:41:28;;;;;;;4.00;2.90;;;27.20;56.00;;;;;;10939008;32;20046;-72
2022/05/14 17:47:30;;;;;;;5.22;2.20;;;27.00;56.80;;;;;;10941514;32;20019;-72
2022/05/14 17:53:37;;;;;;;3.60;2.42;;;26.80;57.40;;;;;;10941185;32;20034;-73
2022/05/14 17:59:40;;;;;;;6.53;2.45;;;26.70;57.90;;;;;;10940866;32;20050;-73
2022/05/14 18:05:44;;;;;;;3.28;2.15;;;26.70;58.10;;;;;;10936878;32;20023;-73
2022/05/14 18:11:46;;;;;;;4.18;2.30;;;26.60;58.20;;;;;;10940941;32;20472;-73
2022/05/14 18:17:55;;;;;;;3.75;2.65;;;26.50;58.90;;;;;;10937589;32;20031;-71
2022/05/14 18:23:58;;;;;;;4.55;2.87;;;26.30;59.70;;;;;;10941288;32;20022;-72
2022/05/14 18:30:25;;;;;;;6.70;2.45;;;26.30;61.30;;;;;;10940532;32;20031;-73
2022/05/14 18:36:28;;;;;;;3.62;2.40;;;26.20;61.10;;;;;;10940970;32;20057;-71
2022/05/14 18:42:41;;;;;;;4.82;2.47;;;26.10;61.10;;;;;;10947329;32;20049;-71
2022/05/14 18:48:44;;;;;;;3.70;2.28;;;26.10;61.50;;;;;;10917458;32;20034;-74
2022/05/14 18:54:46;;;;;;;2.87;2.00;;;26.00;61.60;;;;;;10893197;32;20066;-71
2022/05/14 19:00:49;;;;;;;3.42;1.70;;;26.00;61.80;;;;;;10895960;32;20031;-71
2022/05/14 19:13:13;;;;;;;1.83;1.35;;;25.80;62.50;;;;;;10909133;32;20399;-72
2022/05/14 19:19:16;;;;;;;3.03;1.67;;;25.80;63.20;;;;;;10908650;32;20085;-72
2022/05/14 19:25:19;;;;;;;3.05;1.60;;;25.70;63.50;;;;;;10908542;32;20016;-72
2022/05/14 19:31:21;;;;;;;3.03;1.42;;;25.70;63.60;;;;;;10908311;32;20018;-72
2022/05/14 19:37:29;;;;;;;4.87;1.45;;;25.60;63.70;;;;;;10907966;32;20031;-72
2022/05/14 19:43:37;;;;;;;2.33;1.30;;;25.60;63.70;;;;;;10894372;32;20028;-72
2022/05/14 19:49:40;;;;;;;1.73;1.20;;;25.50;64.00;;;;;;10904706;32;20143;-71
2022/05/14 19:55:42;;;;;;;1.87;1.30;;;25.50;64.20;;;;;;10907203;32;20312;-71
2022/05/14 20:01:46;;;;;;;1.70;1.10;;;25.40;64.70;;;;;;10907151;32;20023;-72
2022/05/14 20:07:49;;;;;;;2.58;1.45;;;25.30;64.70;;;;;;10889731;32;20031;-71
2022/05/14 20:13:52;;;;;;;1.45;0.90;;;25.30;65.10;;;;;;10906941;32;20422;-72
2022/05/14 20:26:16;;;;;;;3.15;1.77;;;25.20;65.30;;;;;;10906370;32;20394;-73
2022/05/14 20:32:20;;;;;;;1.60;1.20;;;25.10;65.20;;;;;;10906123;32;20042;-75
2022/05/14 20:38:22;;;;;;;1.75;1.00;;;25.00;65.30;;;;;;10905653;32;20028;-75
2022/05/14 20:44:24;;;;;;;2.28;1.50;;;24.90;65.30;;;;;;10914098;32;20031;-75
2022/05/14 20:50:28;;;;;;;1.87;1.02;;;24.80;65.40;;;;;;10942056;32;20079;-75
2022/05/14 20:56:30;;;;;;;1.25;0.80;;;24.80;65.50;;;;;;10942772;32;20418;-75
2022/05/14 21:03:02;;;;;;;2.83;1.52;;;24.80;65.60;;;;;;10928699;32;20037;-75
2022/05/14 21:09:05;;;;;;;3.72;1.45;;;24.80;65.60;;;;;;10942589;32;20011;-75
2022/05/14 21:15:10;;;;;;;2.15;1.50;;;24.70;65.70;;;;;;10942213;32;20022;-75
2022/05/14 21:21:14;;;;;;;2.35;1.70;;;24.60;65.90;;;;;;10918605;32;20023;-75
2022/05/14 21:27:16;;;;;;;1.67;1.15;;;24.50;66.10;;;;;;10902925;32;20343;-75
2022/05/14 21:33:18;;;;;;;2.45;1.50;;;24.50;66.70;;;;;;10904539;32;20346;-75
2022/05/14 21:39:20;;;;;;;3.28;1.92;;;24.40;67.00;;;;;;10904160;32;20039;-74
2022/05/14 21:45:29;;;;;;;2.78;1.90;;;24.30;66.90;;;;;;10901791;32;20046;-75
2022/05/14 21:51:32;;;;;;;3.87;2.08;;;24.30;67.20;;;;;;10901836;32;20019;-75
2022/05/14 21:57:34;;;;;;;2.05;1.60;;;24.30;67.20;;;;;;10903834;32;20326;-75
2022/05/14 22:03:36;;;;;;;2.80;1.87;;;24.20;67.40;;;;;;10899573;32;20081;-75
2022/05/14 22:09:38;;;;;;;2.80;1.65;;;24.10;67.90;;;;;;10886917;32;20409;-76
2022/05/14 22:15:42;;;;;;;2.83;1.20;;;24.10;67.80;;;;;;10907321;32;20024;-74
2022/05/14 22:22:10;;;;;;;3.97;2.33;;;24.00;68.00;;;;;;10910552;32;20054;-73
2022/05/14 22:28:13;;;;;;;4.97;3.15;;;23.90;68.40;;;;;;10906290;32;20425;-75
2022/05/14 22:41:14;;;;;;;4.10;2.45;;;23.70;68.70;;;;;;10909797;32;20319;-73
2022/05/14 22:47:35;;;;;;;3.42;2.35;;;23.60;69.00;;;;;;10909723;32;20339;-75
2022/05/14 22:53:38;;;;;;;4.30;2.45;;;23.60;69.20;;;;;;10909414;32;20024;-75
2022/05/14 22:59:40;;;;;;;5.90;2.87;;;23.60;69.20;;;;;;10909207;32;20031;-76
2022/05/14 23:05:43;;;;;;;4.40;3.05;;;23.50;69.20;;;;;;10909233;32;20011;-72
2022/05/14 23:11:46;;;;;;;3.30;2.37;;;23.40;69.40;;;;;;10909129;32;20020;-72
2022/05/14 23:17:49;;;;;;;6.07;3.62;;;23.40;69.60;;;;;;10909060;32;20042;-72
2022/05/14 23:23:51;;;;;;;4.82;3.58;;;23.50;69.60;;;;;;10908530;32;20053;-72
2022/05/14 23:29:54;;;;;;;8.63;4.78;;;23.50;69.60;;;;;;10908712;32;20311;-72
2022/05/14 23:42:16;;;;;;;5.03;3.70;;;23.20;70.00;;;;;;10908348;32;20019;-72
2022/05/14 23:48:18;;;;;;;5.80;3.83;;;23.10;70.20;;;;;;10907852;32;20023;-72
2022/05/14 23:54:20;;;;;;;5.45;3.28;;;23.00;70.20;;;;;;10907603;32;20019;-72
